createdAt,value
2018-05-23T00:01:38.935Z,82.60
2018-05-23T00:04:06.371Z,83.50
2018-05-23T00:06:33.850Z,84.10
2018-05-23T00:09:01.275Z,83.80
2018-05-23T00:11:29.482Z,85.00
2018-05-23T00:13:56.909Z,84.90
2018-05-23T00:16:24.349Z,84.20
2018-05-23T00:18:52.542Z,84.50
2018-05-23T00:21:19.983Z,84.40
2018-05-23T00:23:48.222Z,84.40
2018-05-23T00:26:15.786Z,84.30
2018-05-23T00:28:43.530Z,83.30
2018-05-23T00:31:11.027Z,83.70
2018-05-23T00:33:38.445Z,85.50
2018-05-23T00:36:06.327Z,85.50
2018-05-23T00:38:33.811Z,84.40
2018-05-23T00:41:01.262Z,84.70
2018-05-23T00:43:29.566Z,84.30
2018-05-23T00:45:57.823Z,86.10
2018-05-23T00:48:25.238Z,86.00
2018-05-23T00:50:52.662Z,86.70
2018-05-23T00:53:20.090Z,86.00
2018-05-23T00:55:47.604Z,85.70
2018-05-23T00:58:15.017Z,86.70
2018-05-23T01:00:43.207Z,85.70
2018-05-23T01:03:11.508Z,87.30
2018-05-23T01:05:38.929Z,87.30
2018-05-23T01:08:07.118Z,85.20
2018-05-23T01:10:35.306Z,85.00
2018-05-23T01:13:02.730Z,84.80
2018-05-23T01:15:30.931Z,84.10
2018-05-23T01:17:58.954Z,84.10
2018-05-23T01:20:26.375Z,84.30
2018-05-23T01:22:53.822Z,85.20
2018-05-23T01:25:21.298Z,85.30
2018-05-23T01:27:48.726Z,85.40
2018-05-23T01:30:16.914Z,85.10
2018-05-23T01:32:44.413Z,85.00
2018-05-23T01:35:11.914Z,85.90
2018-05-23T01:37:39.259Z,85.80
2018-05-23T01:40:08.654Z,85.10
2018-05-23T01:42:36.726Z,85.00
2018-05-23T01:45:04.142Z,84.90
2018-05-23T01:47:31.658Z,85.10
2018-05-23T01:50:00.042Z,85.30
2018-05-23T01:52:28.250Z,85.80
2018-05-23T01:54:55.701Z,85.80
2018-05-23T01:57:23.123Z,84.90
2018-05-23T01:59:51.314Z,86.20
2018-05-23T02:02:20.270Z,86.30
2018-05-23T02:04:47.711Z,85.70
2018-05-23T02:07:15.127Z,86.80
2018-05-23T02:09:42.550Z,86.60
2018-05-23T02:12:11.638Z,87.40
2018-05-23T02:14:39.159Z,86.70
2018-05-23T02:17:06.606Z,85.70
2018-05-23T02:19:34.038Z,87.00
2018-05-23T02:22:02.239Z,87.80
2018-05-23T02:24:29.713Z,87.80
2018-05-23T02:26:57.157Z,88.10
2018-05-23T02:29:24.590Z,88.60
2018-05-23T02:31:52.012Z,87.60
2018-05-23T02:34:20.351Z,88.10
2018-05-23T02:36:47.810Z,88.10
2018-05-23T02:39:15.230Z,88.40
2018-05-23T02:41:43.417Z,88.50
2018-05-23T02:44:10.843Z,88.40
2018-05-23T02:46:38.560Z,89.10
2018-05-23T02:49:05.986Z,87.80
2018-05-23T02:51:34.316Z,87.30
2018-05-23T02:54:01.951Z,87.20
2018-05-23T02:56:29.435Z,86.70
2018-05-23T02:58:57.344Z,87.80
2018-05-23T03:01:25.655Z,87.20
2018-05-23T03:03:53.070Z,87.20
2018-05-23T03:06:21.257Z,90.00
2018-05-23T03:08:49.450Z,88.70
2018-05-23T03:11:16.926Z,88.60
2018-05-23T03:13:44.362Z,89.00
2018-05-23T03:16:11.873Z,87.50
2018-05-23T03:18:39.286Z,88.40
2018-05-23T03:21:07.002Z,87.90
2018-05-23T03:23:34.422Z,89.00
2018-05-23T03:26:01.916Z,87.20
2018-05-23T03:28:30.134Z,86.80
2018-05-23T03:30:57.549Z,86.90
2018-05-23T03:33:24.974Z,88.60
2018-05-23T03:35:52.425Z,89.00
2018-05-23T03:38:19.846Z,88.80
2018-05-23T03:40:48.033Z,89.00
2018-05-23T03:43:15.462Z,89.00
2018-05-23T03:45:42.895Z,88.70
2018-05-23T03:48:10.454Z,89.00
2018-05-23T03:50:37.903Z,89.50
2018-05-23T03:53:05.614Z,89.70
2018-05-23T03:55:33.843Z,90.00
2018-05-23T03:58:01.262Z,90.00
2018-05-23T04:00:40.519Z,89.60
2018-05-23T04:03:19.930Z,89.60
2018-05-23T04:05:59.486Z,90.20
2018-05-23T04:08:26.910Z,89.70
2018-05-23T04:10:55.099Z,88.80
2018-05-23T04:13:22.554Z,88.90
2018-05-23T04:15:50.018Z,89.00
2018-05-23T04:18:17.518Z,88.90
2018-05-23T04:20:45.727Z,88.60
2018-05-23T04:23:13.920Z,88.10
2018-05-23T04:25:41.372Z,88.00
2018-05-23T04:28:09.550Z,87.50
2018-05-23T04:30:37.858Z,88.60
2018-05-23T04:33:05.353Z,88.70
2018-05-23T04:35:32.980Z,87.60
2018-05-23T04:38:00.651Z,88.40
2018-05-23T04:40:28.088Z,86.90
2018-05-23T04:42:55.765Z,87.00
2018-05-23T04:45:23.185Z,87.00
2018-05-23T04:47:50.610Z,86.80
2018-05-23T04:50:18.034Z,86.10
2018-05-23T04:52:45.630Z,86.30
2018-05-23T04:55:14.787Z,86.70
2018-05-23T04:57:42.258Z,86.60
2018-05-23T05:00:09.826Z,84.80
2018-05-23T05:02:37.397Z,84.60
2018-05-23T05:05:04.824Z,82.80
2018-05-23T05:07:32.258Z,83.40
2018-05-23T05:10:00.532Z,82.30
2018-05-23T05:12:28.242Z,82.20
2018-05-23T05:14:55.672Z,80.30
2018-05-23T05:17:23.298Z,79.00
2018-05-23T05:19:50.908Z,78.20
2018-05-23T05:22:18.337Z,76.80
2018-05-23T05:24:45.782Z,77.30
2018-05-23T05:27:13.223Z,76.70
2018-05-23T05:29:41.405Z,74.30
2018-05-23T05:32:09.621Z,74.00
2018-05-23T05:34:37.045Z,73.90
2018-05-23T05:37:05.232Z,74.90
2018-05-23T05:39:32.712Z,75.00
2018-05-23T05:42:01.099Z,73.80
2018-05-23T05:44:28.543Z,74.20
2018-05-23T05:46:56.049Z,74.50
2018-05-23T05:49:24.822Z,75.90
2018-05-23T05:51:52.263Z,75.80
2018-05-23T05:54:19.996Z,74.90
2018-05-23T05:56:48.007Z,73.80
2018-05-23T05:59:15.439Z,72.30
2018-05-23T06:01:42.858Z,71.30
2018-05-23T06:04:11.508Z,71.00
2018-05-23T06:06:40.140Z,70.70
2018-05-23T06:09:08.336Z,68.80
2018-05-23T06:11:36.119Z,68.80
2018-05-23T06:14:03.526Z,70.00
2018-05-23T06:16:31.717Z,70.30
2018-05-23T06:18:59.142Z,70.30
2018-05-23T06:21:26.583Z,71.90
2018-05-23T06:23:54.015Z,67.10
2018-05-23T06:26:22.357Z,69.00
2018-05-23T06:28:50.582Z,67.20
2018-05-23T06:31:18.018Z,67.20
2018-05-23T06:33:45.463Z,67.50
2018-05-23T06:36:12.950Z,65.00
2018-05-23T06:38:40.378Z,63.80
2018-05-23T06:41:07.807Z,63.30
2018-05-23T06:43:35.236Z,64.70
2018-05-23T06:46:02.938Z,63.60
2018-05-23T06:48:32.036Z,60.50
2018-05-23T06:51:00.240Z,60.40
2018-05-23T06:53:27.698Z,60.40
2018-05-23T06:55:55.146Z,57.90
2018-05-23T06:58:22.573Z,59.50
2018-05-23T07:00:50.002Z,58.40
2018-05-23T07:03:17.823Z,57.30
2018-05-23T07:05:45.253Z,57.30
2018-05-23T07:08:13.427Z,57.10
2018-05-23T07:10:41.674Z,55.50
2018-05-23T07:13:09.150Z,55.10
2018-05-23T07:15:37.146Z,53.90
2018-05-23T07:18:05.420Z,54.60
2018-05-23T07:20:32.790Z,54.60
2018-05-23T07:23:01.116Z,53.80
2018-05-23T07:25:28.547Z,52.80
2018-05-23T07:27:56.719Z,52.50
2018-05-23T07:30:24.176Z,51.00
2018-05-23T07:32:51.682Z,51.50
2018-05-23T07:35:19.862Z,51.10
2018-05-23T07:37:48.067Z,49.30
2018-05-23T07:40:15.554Z,49.10
2018-05-23T07:42:43.007Z,49.70
2018-05-23T07:45:10.572Z,48.70
2018-05-23T07:47:38.710Z,48.90
2018-05-23T07:50:06.202Z,49.40
2018-05-23T07:52:34.374Z,47.90
2018-05-23T07:55:01.794Z,47.00
2018-05-23T07:57:30.821Z,48.30
2018-05-23T07:59:58.274Z,48.10
2018-05-23T08:02:25.737Z,46.40
2018-05-23T08:04:53.182Z,45.90
2018-05-23T08:07:20.683Z,45.50
2018-05-23T08:09:49.357Z,42.80
2018-05-23T08:12:16.778Z,42.70
2018-05-23T08:14:44.713Z,43.30
2018-05-23T08:17:12.490Z,44.80
2018-05-23T08:19:40.726Z,43.20
2018-05-23T08:22:08.176Z,42.50
2018-05-23T08:24:36.070Z,45.00
2018-05-23T08:27:03.495Z,41.30
2018-05-23T08:29:31.026Z,40.50
2018-05-23T08:31:59.538Z,40.80
2018-05-23T08:34:26.971Z,40.70
2018-05-23T08:36:54.439Z,40.80
2018-05-23T08:39:22.070Z,40.20
2018-05-23T08:41:50.341Z,37.40
2018-05-23T08:44:19.125Z,37.80
2018-05-23T08:46:46.743Z,37.60
2018-05-23T08:49:14.185Z,38.20
2018-05-23T08:51:41.665Z,39.20
2018-05-23T08:54:09.503Z,38.10
2018-05-23T08:56:37.795Z,38.10
2018-05-23T08:59:05.254Z,38.10
2018-05-23T09:01:32.679Z,36.90
2018-05-23T09:04:01.853Z,36.80
2018-05-23T09:06:29.382Z,36.80
2018-05-23T09:08:57.264Z,38.10
2018-05-23T09:11:24.731Z,37.10
2018-05-23T09:13:52.386Z,34.40
2018-05-23T09:16:19.826Z,35.10
2018-05-23T09:18:47.249Z,32.20
2018-05-23T09:21:15.558Z,32.30
2018-05-23T09:23:43.038Z,32.20
2018-05-23T09:26:10.458Z,33.60
2018-05-23T09:28:38.089Z,33.50
2018-05-23T09:31:06.290Z,32.70
2018-05-23T09:33:33.781Z,32.60
2018-05-23T09:36:06.271Z,32.20
2018-05-23T09:38:33.703Z,32.20
2018-05-23T09:41:01.444Z,33.30
2018-05-23T09:43:28.940Z,33.20
2018-05-23T09:45:56.383Z,32.40
2018-05-23T09:48:23.840Z,33.30
2018-05-23T09:50:51.318Z,34.00
2018-05-23T09:53:19.603Z,31.40
2018-05-23T09:55:47.101Z,31.70
2018-05-23T09:58:15.292Z,32.70
2018-05-23T10:00:42.811Z,32.70
2018-05-23T10:03:10.236Z,32.30
2018-05-23T10:05:37.898Z,34.30
2018-05-23T10:08:05.570Z,32.20
2018-05-23T10:10:32.995Z,29.10
2018-05-23T10:13:00.773Z,29.20
2018-05-23T10:15:28.254Z,30.40
2018-05-23T10:17:55.711Z,31.40
2018-05-23T10:20:23.126Z,31.70
2018-05-23T10:22:50.603Z,30.30
2018-05-23T10:25:18.094Z,31.50
2018-05-23T10:27:45.506Z,29.70
2018-05-23T10:30:12.930Z,29.50
2018-05-23T10:32:40.371Z,31.60
2018-05-23T10:35:07.822Z,29.60
2018-05-23T10:37:35.239Z,29.80
2018-05-23T10:40:02.692Z,28.80
2018-05-23T10:42:31.221Z,28.90
2018-05-23T10:44:58.679Z,30.70
2018-05-23T10:47:26.171Z,28.70
2018-05-23T10:49:54.491Z,30.00
2018-05-23T10:52:21.952Z,30.00
2018-05-23T10:54:49.734Z,30.30
2018-05-23T10:57:17.158Z,33.50
2018-05-23T10:59:45.343Z,28.70
2018-05-23T11:02:12.766Z,28.50
2018-05-23T11:04:41.241Z,31.30
2018-05-23T11:07:09.435Z,31.00
2018-05-23T11:09:36.854Z,30.80
2018-05-23T11:12:06.137Z,31.00
2018-05-23T11:14:33.635Z,30.80
2018-05-23T11:17:01.826Z,31.20
2018-05-23T11:19:30.286Z,30.50
2018-05-23T11:21:58.475Z,30.30
2018-05-23T11:24:26.731Z,30.30
2018-05-23T11:26:54.531Z,30.10
2018-05-23T11:29:21.994Z,31.10
2018-05-23T11:31:49.426Z,29.40
2018-05-23T11:34:17.639Z,29.50
2018-05-23T11:36:45.086Z,29.60
2018-05-23T11:39:12.537Z,29.20
2018-05-23T11:41:40.730Z,30.40
2018-05-23T11:44:08.156Z,33.10
2018-05-23T11:46:36.527Z,29.20
2018-05-23T11:49:05.418Z,29.20
2018-05-23T11:51:34.611Z,35.50
2018-05-23T11:56:48.249Z,30.90
2018-05-23T11:59:15.882Z,32.40
2018-05-23T12:01:43.303Z,31.10
2018-05-23T12:04:11.485Z,31.40
2018-05-23T12:06:39.027Z,31.40
2018-05-23T12:09:07.254Z,34.30
2018-05-23T12:11:34.699Z,34.30
2018-05-23T12:14:02.880Z,32.50
2018-05-23T12:16:30.384Z,31.70
2018-05-23T12:18:57.801Z,34.70
2018-05-23T12:21:25.292Z,33.10
2018-05-23T12:23:52.935Z,32.70
2018-05-23T12:26:20.358Z,31.80
2018-05-23T12:28:48.664Z,32.50
2018-05-23T12:31:16.414Z,36.60
2018-05-23T12:33:43.849Z,34.10
2018-05-23T12:36:11.278Z,35.10
2018-05-23T12:38:38.843Z,34.50
2018-05-23T12:41:06.426Z,32.90
2018-05-23T12:43:33.727Z,33.40
2018-05-23T12:46:01.285Z,33.10
2018-05-23T12:48:28.831Z,35.70
2018-05-23T12:50:56.383Z,34.80
2018-05-23T12:53:24.112Z,35.90
2018-05-23T12:55:52.376Z,34.00
2018-05-23T12:58:19.817Z,34.00
2018-05-23T13:00:47.241Z,34.40
2018-05-23T13:03:14.670Z,36.40
2018-05-23T13:05:42.863Z,36.60
2018-05-23T13:08:10.367Z,36.60
2018-05-23T13:10:37.788Z,37.20
2018-05-23T13:13:05.206Z,38.90
2018-05-23T13:15:33.398Z,40.20
2018-05-23T13:18:02.085Z,40.20
2018-05-23T13:20:30.487Z,37.70
2018-05-23T13:22:57.948Z,37.70
2018-05-23T13:25:25.391Z,37.60
2018-05-23T13:27:52.861Z,37.30
2018-05-23T13:30:20.282Z,37.90
2018-05-23T13:32:48.717Z,38.60
2018-05-23T13:35:16.215Z,38.50
2018-05-23T13:37:44.482Z,37.60
2018-05-23T13:40:11.925Z,37.60
2018-05-23T13:42:39.373Z,39.20
2018-05-23T13:45:06.943Z,37.30
2018-05-23T13:47:34.391Z,37.70
2018-05-23T13:50:01.805Z,38.40
2018-05-23T13:52:29.234Z,40.60
2018-05-23T13:54:56.672Z,38.00
2018-05-23T13:57:24.102Z,40.10
2018-05-23T13:59:53.138Z,38.90
2018-05-23T14:02:22.298Z,39.10
2018-05-23T14:04:49.748Z,39.10
2018-05-23T14:07:17.203Z,39.60
2018-05-23T14:09:44.879Z,39.20
2018-05-23T14:14:45.366Z,39.10
2018-05-23T14:17:12.809Z,40.20
2018-05-23T14:19:40.239Z,39.70
2018-05-23T14:22:07.707Z,39.80
2018-05-23T14:24:35.158Z,42.10
2018-05-23T14:27:03.671Z,40.40
2018-05-23T14:29:31.121Z,40.00
2018-05-23T14:31:59.342Z,41.00
2018-05-23T14:34:26.866Z,40.20
2018-05-23T14:36:54.295Z,40.20
2018-05-23T14:39:21.729Z,40.50
2018-05-23T14:41:49.534Z,40.50
2018-05-23T14:44:17.727Z,40.70
2018-05-23T14:46:45.162Z,40.40
2018-05-23T14:49:12.599Z,42.50
2018-05-23T14:51:40.168Z,41.00
2018-05-23T14:54:07.645Z,41.80
2018-05-23T14:56:36.685Z,42.00
2018-05-23T14:59:04.967Z,41.70
2018-05-23T15:01:32.390Z,41.50
2018-05-23T15:04:00.423Z,41.60
2018-05-23T15:06:28.094Z,40.90
2018-05-23T15:08:55.520Z,42.90
2018-05-23T15:11:22.947Z,41.30
2018-05-23T15:13:51.139Z,40.80
2018-05-23T15:16:19.332Z,42.30
2018-05-23T15:18:46.810Z,42.40
2018-05-23T15:21:14.230Z,42.60
2018-05-23T15:23:42.736Z,42.00
2018-05-23T15:26:10.153Z,42.00
2018-05-23T15:28:38.528Z,42.80
2018-05-23T15:31:06.822Z,42.20
2018-05-23T15:33:35.012Z,42.20
2018-05-23T15:36:02.498Z,42.20
2018-05-23T15:38:29.974Z,41.90
2018-05-23T15:40:57.404Z,43.00
2018-05-23T15:43:25.254Z,41.60
2018-05-23T15:45:52.695Z,41.10
2018-05-23T15:48:20.926Z,43.00
2018-05-23T15:50:48.342Z,42.90
2018-05-23T15:53:15.841Z,42.20
2018-05-23T15:55:43.262Z,41.30
2018-05-23T15:58:10.683Z,43.40
2018-05-23T16:00:38.130Z,42.00
2018-05-23T16:03:05.595Z,41.90
2018-05-23T16:05:33.008Z,42.80
2018-05-23T16:08:00.453Z,41.80
2018-05-23T16:10:27.895Z,40.70
2018-05-23T16:12:56.348Z,43.40
2018-05-23T16:15:23.865Z,43.30
2018-05-23T16:17:51.766Z,40.30
2018-05-23T16:20:20.159Z,41.00
2018-05-23T16:22:48.348Z,41.20
2018-05-23T16:25:16.546Z,41.60
2018-05-23T16:27:44.916Z,41.40
2018-05-23T16:30:13.125Z,41.40
2018-05-23T16:32:40.661Z,41.30
2018-05-23T16:35:09.603Z,40.20
2018-05-23T16:37:37.035Z,41.70
2018-05-23T16:40:04.483Z,41.50
2018-05-23T16:42:31.910Z,40.90
2018-05-23T16:45:00.944Z,40.30
2018-05-23T16:47:28.354Z,40.30
2018-05-23T16:49:56.316Z,41.20
2018-05-23T16:52:23.738Z,40.80
2018-05-23T16:54:51.186Z,42.10
2018-05-23T16:57:18.623Z,40.80
2018-05-23T16:59:47.754Z,38.90
2018-05-23T17:02:15.178Z,38.90
2018-05-23T17:04:43.297Z,38.20
2018-05-23T17:07:10.873Z,40.50
2018-05-23T17:09:38.318Z,38.80
2018-05-23T17:12:05.761Z,37.90
2018-05-23T17:14:33.235Z,39.60
2018-05-23T17:17:01.072Z,38.90
2018-05-23T17:19:28.869Z,38.50
2018-05-23T17:21:56.496Z,39.20
2018-05-23T17:24:24.105Z,39.20
2018-05-23T17:26:51.491Z,40.10
2018-05-23T17:29:19.126Z,40.60
2018-05-23T17:31:47.315Z,42.40
2018-05-23T17:34:15.760Z,43.20
2018-05-23T17:36:44.390Z,43.20
2018-05-23T17:39:13.602Z,44.00
2018-05-23T17:44:27.401Z,43.70
2018-05-23T17:46:54.815Z,43.30
2018-05-23T17:49:22.253Z,43.00
2018-05-23T17:51:50.474Z,43.70
2018-05-23T17:54:17.894Z,43.70
2018-05-23T17:56:46.092Z,44.10
2018-05-23T17:59:14.523Z,44.30
2018-05-23T18:01:41.938Z,44.30
2018-05-23T18:04:09.519Z,44.80
2018-05-23T18:06:37.130Z,45.20
2018-05-23T18:09:05.041Z,45.50
2018-05-23T18:11:32.918Z,46.50
2018-05-23T18:14:00.402Z,46.50
2018-05-23T18:16:29.606Z,46.10
2018-05-23T18:18:58.029Z,46.30
2018-05-23T18:21:25.991Z,46.30
2018-05-23T18:23:54.442Z,47.40
2018-05-23T18:26:22.636Z,48.30
2018-05-23T18:28:50.574Z,48.30
2018-05-23T18:31:18.147Z,48.70
2018-05-23T18:33:46.331Z,47.50
2018-05-23T18:36:14.741Z,49.30
2018-05-23T18:38:42.174Z,48.50
2018-05-23T18:41:09.786Z,49.20
2018-05-23T18:43:38.202Z,50.10
2018-05-23T18:46:06.436Z,49.20
2018-05-23T18:48:33.850Z,49.10
2018-05-23T18:51:01.915Z,50.10
2018-05-23T18:53:30.098Z,49.50
2018-05-23T18:55:57.587Z,49.50
2018-05-23T18:58:25.114Z,51.20
2018-05-23T19:00:52.534Z,52.10
2018-05-23T19:03:19.960Z,52.20
2018-05-23T19:05:47.435Z,51.80
2018-05-23T19:08:14.862Z,53.00
2018-05-23T19:10:43.543Z,53.50
2018-05-23T19:13:11.001Z,53.50
2018-05-23T19:15:38.422Z,54.00
2018-05-23T19:18:06.782Z,54.60
2018-05-23T19:20:35.042Z,54.70
2018-05-23T19:23:03.000Z,54.70
2018-05-23T19:25:30.498Z,55.20
2018-05-23T19:27:58.423Z,55.90
2018-05-23T19:30:25.957Z,55.10
2018-05-23T19:32:53.965Z,55.40
2018-05-23T19:35:21.393Z,56.30
2018-05-23T19:37:48.844Z,56.40
2018-05-23T19:40:16.262Z,56.90
2018-05-23T19:42:43.686Z,56.90
2018-05-23T19:45:11.760Z,57.40
2018-05-23T19:47:39.230Z,57.80
2018-05-23T19:50:06.660Z,58.40
2018-05-23T19:52:38.013Z,58.20
2018-05-23T19:55:06.271Z,59.30
2018-05-23T19:57:33.800Z,59.20
2018-05-23T20:00:01.215Z,59.40
2018-05-23T20:02:28.630Z,59.70
2018-05-23T20:04:56.825Z,60.10
2018-05-23T20:07:24.263Z,60.10
2018-05-23T20:09:52.472Z,60.70
2018-05-23T20:12:20.642Z,60.70
2018-05-23T20:14:48.118Z,60.60
2018-05-23T20:17:15.746Z,61.20
2018-05-23T20:19:43.198Z,60.30
2018-05-23T20:22:11.410Z,60.10
2018-05-23T20:24:38.833Z,60.10
2018-05-23T20:27:07.023Z,60.00
2018-05-23T20:29:34.438Z,60.00
2018-05-23T20:32:01.862Z,60.10
2018-05-23T20:34:29.290Z,60.00
2018-05-23T20:36:56.718Z,60.10
2018-05-23T20:39:24.910Z,59.80
2018-05-23T20:41:52.338Z,59.70
2018-05-23T20:44:20.022Z,60.00
2018-05-23T20:46:48.198Z,59.80
2018-05-23T20:49:16.414Z,59.40
2018-05-23T20:51:43.838Z,59.40
2018-05-23T20:54:11.306Z,59.50
2018-05-23T20:56:38.730Z,59.70
2018-05-23T20:59:07.910Z,58.70
2018-05-23T21:01:37.082Z,57.80
2018-05-23T21:04:04.512Z,57.70
2018-05-23T21:06:31.938Z,59.30
2018-05-23T21:08:59.369Z,58.60
2018-05-23T21:11:27.094Z,59.10
2018-05-23T21:13:54.489Z,58.80
2018-05-23T21:16:22.759Z,59.60
2018-05-23T21:18:50.178Z,59.00
2018-05-23T21:21:17.622Z,59.20
2018-05-23T21:23:45.820Z,59.40
2018-05-23T21:26:13.261Z,59.30
2018-05-23T21:28:40.712Z,59.50
2018-05-23T21:31:09.034Z,60.20
2018-05-23T21:33:36.610Z,60.10
2018-05-23T21:36:04.026Z,59.80
2018-05-23T21:38:31.770Z,60.20
2018-05-23T21:40:59.963Z,60.20
2018-05-23T21:43:27.410Z,60.10
2018-05-23T21:45:55.926Z,60.70
2018-05-23T21:48:23.348Z,60.70
2018-05-23T21:50:51.538Z,61.20
2018-05-23T21:53:19.026Z,61.20
2018-05-23T21:55:46.449Z,60.50
2018-05-23T21:58:14.235Z,62.10
2018-05-23T22:00:41.654Z,61.80
2018-05-23T22:03:09.850Z,62.00
2018-05-23T22:05:37.299Z,62.00
2018-05-23T22:08:04.741Z,61.70
2018-05-23T22:10:33.186Z,62.90
2018-05-23T22:13:00.949Z,62.90
2018-05-23T22:15:28.367Z,62.90
2018-05-23T22:17:55.836Z,62.80
2018-05-23T22:20:23.350Z,63.70
2018-05-23T22:22:51.534Z,63.60
2018-05-23T22:25:19.722Z,62.90
2018-05-23T22:27:48.038Z,62.80
2018-05-23T22:30:15.570Z,63.40
2018-05-23T22:32:42.954Z,64.60
2018-05-23T22:35:10.401Z,65.00
2018-05-23T22:37:37.816Z,65.10
2018-05-23T22:40:06.066Z,65.80
2018-05-23T22:42:33.490Z,65.70
2018-05-23T22:45:00.913Z,66.30
2018-05-23T22:47:29.112Z,66.90
2018-05-23T22:49:56.680Z,66.90
2018-05-23T22:52:24.864Z,66.80
2018-05-23T22:54:52.279Z,66.80
2018-05-23T22:57:20.502Z,67.80
2018-05-23T22:59:48.955Z,67.70
2018-05-23T23:02:16.653Z,68.00
2018-05-23T23:04:44.085Z,68.10
2018-05-23T23:07:11.502Z,68.60
2018-05-23T23:09:39.821Z,68.80
2018-05-23T23:12:07.243Z,68.80
2018-05-23T23:14:35.451Z,70.40
2018-05-23T23:17:02.995Z,70.20
2018-05-23T23:19:30.483Z,70.50
2018-05-23T23:21:57.906Z,71.20
2018-05-23T23:24:25.345Z,71.50
2018-05-23T23:26:53.533Z,72.10
2018-05-23T23:29:21.738Z,72.90
2018-05-23T23:31:49.926Z,74.00
2018-05-23T23:34:17.347Z,73.30
2018-05-23T23:36:56.754Z,73.80
2018-05-23T23:39:25.698Z,74.70
2018-05-23T23:41:53.140Z,74.70
2018-05-23T23:44:20.594Z,74.00
2018-05-23T23:46:48.118Z,75.70
2018-05-23T23:49:15.833Z,76.10
2018-05-23T23:51:43.328Z,74.70
2018-05-23T23:54:12.264Z,75.80
2018-05-23T23:56:40.773Z,75.50
2018-05-23T23:59:08.194Z,75.50
